createdAt,value
2019-05-29T00:00:37.058Z,3.83
2019-05-29T00:03:06.421Z,3.90
2019-05-29T00:05:35.442Z,4.23
2019-05-29T00:08:04.676Z,4.43
2019-05-29T00:10:33.783Z,4.57
2019-05-29T00:13:02.970Z,4.20
2019-05-29T00:15:32.067Z,4.10
2019-05-29T00:18:01.125Z,4.10
2019-05-29T00:20:30.103Z,4.30
2019-05-29T00:22:59.189Z,4.77
2019-05-29T00:25:28.171Z,4.37
2019-05-29T00:27:57.474Z,4.33
2019-05-29T00:30:26.570Z,4.80
2019-05-29T00:32:55.843Z,4.80
2019-05-29T00:35:25.057Z,4.87
2019-05-29T00:37:54.595Z,4.47
2019-05-29T00:40:24.362Z,3.93
2019-05-29T00:42:53.418Z,7.63
2019-05-29T00:45:23.106Z,5.43
2019-05-29T00:47:52.240Z,5.13
2019-05-29T00:50:21.695Z,6.00
2019-05-29T00:52:51.351Z,6.13
2019-05-29T00:55:20.388Z,5.87
2019-05-29T00:57:49.522Z,5.00
2019-05-29T01:00:19.500Z,5.10
2019-05-29T01:02:48.662Z,6.67
2019-05-29T01:05:18.211Z,6.23
2019-05-29T01:07:47.653Z,5.60
2019-05-29T01:10:19.349Z,5.20
2019-05-29T01:12:48.483Z,6.30
2019-05-29T01:15:19.457Z,6.20
2019-05-29T01:17:48.629Z,6.30
2019-05-29T01:20:18.145Z,6.03
2019-05-29T01:22:47.707Z,6.13
2019-05-29T01:25:17.050Z,5.47
2019-05-29T01:27:46.080Z,7.03
2019-05-29T01:30:15.284Z,4.77
2019-05-29T01:32:44.409Z,6.40
2019-05-29T01:35:13.793Z,5.80
2019-05-29T01:37:42.866Z,8.20
2019-05-29T01:40:20.996Z,5.90
2019-05-29T01:42:42.816Z,5.93
2019-05-29T01:45:11.978Z,5.73
2019-05-29T01:47:41.257Z,6.83
2019-05-29T01:50:10.723Z,6.17
2019-05-29T01:52:39.730Z,7.67
2019-05-29T01:55:08.902Z,6.10
2019-05-29T01:57:38.207Z,5.50
2019-05-29T02:00:07.642Z,5.57
2019-05-29T02:02:36.884Z,5.67
2019-05-29T02:05:06.612Z,6.10
2019-05-29T02:07:35.739Z,5.27
2019-05-29T02:10:04.876Z,5.17
2019-05-29T02:12:33.979Z,5.07
2019-05-29T02:15:03.046Z,5.70
2019-05-29T02:17:32.353Z,5.17
2019-05-29T02:20:01.486Z,5.17
2019-05-29T02:22:30.807Z,4.83
2019-05-29T02:25:00.094Z,5.00
2019-05-29T02:27:29.477Z,4.80
2019-05-29T02:29:58.570Z,5.23
2019-05-29T02:32:28.054Z,4.77
2019-05-29T02:34:57.247Z,4.80
2019-05-29T02:37:28.735Z,5.23
2019-05-29T02:39:57.628Z,4.80
2019-05-29T02:42:27.130Z,5.30
2019-05-29T02:44:56.147Z,4.73
2019-05-29T02:47:25.989Z,4.90
2019-05-29T02:49:55.614Z,4.93
2019-05-29T02:52:26.154Z,4.60
2019-05-29T02:54:55.380Z,5.07
2019-05-29T02:57:24.738Z,5.50
2019-05-29T02:59:54.289Z,5.33
2019-05-29T03:02:23.512Z,4.77
2019-05-29T03:04:52.638Z,4.57
2019-05-29T03:07:22.244Z,4.83
2019-05-29T03:09:51.640Z,4.93
2019-05-29T03:12:20.869Z,5.67
2019-05-29T03:14:49.828Z,4.63
2019-05-29T03:17:18.943Z,4.97
2019-05-29T03:19:48.161Z,4.73
2019-05-29T03:22:17.584Z,5.37
2019-05-29T03:24:46.652Z,4.70
2019-05-29T03:27:15.897Z,5.30
2019-05-29T03:29:45.076Z,5.80
2019-05-29T03:32:14.831Z,6.00
2019-05-29T03:34:46.997Z,4.67
2019-05-29T03:37:14.933Z,5.57
2019-05-29T03:39:44.116Z,5.07
2019-05-29T03:42:13.293Z,5.37
2019-05-29T03:44:42.389Z,5.63
2019-05-29T03:47:12.148Z,6.37
2019-05-29T03:49:41.351Z,5.13
2019-05-29T03:52:10.587Z,4.37
2019-05-29T03:54:39.941Z,4.83
2019-05-29T03:57:09.135Z,4.33
2019-05-29T03:59:39.257Z,4.50
2019-05-29T04:02:08.642Z,4.87
2019-05-29T04:04:38.329Z,4.60
2019-05-29T04:07:08.424Z,5.53
2019-05-29T04:09:37.506Z,4.50
2019-05-29T04:12:06.555Z,4.70
2019-05-29T04:14:35.864Z,5.40
2019-05-29T04:17:05.486Z,4.30
2019-05-29T04:19:36.368Z,4.70
2019-05-29T04:22:09.823Z,4.62
2019-05-29T04:24:40.895Z,3.98
2019-05-29T04:27:12.252Z,4.47
2019-05-29T04:29:41.189Z,4.62
2019-05-29T04:32:10.118Z,5.37
2019-05-29T04:34:39.927Z,5.50
2019-05-29T04:37:08.967Z,4.37
2019-05-29T04:39:39.086Z,4.80
2019-05-29T04:42:08.472Z,5.03
2019-05-29T04:44:38.965Z,6.03
2019-05-29T04:47:11.618Z,5.87
2019-05-29T04:49:39.942Z,5.37
2019-05-29T04:52:09.666Z,5.00
2019-05-29T04:54:40.199Z,5.20
2019-05-29T04:57:09.660Z,7.47
2019-05-29T04:59:39.272Z,5.47
2019-05-29T05:02:08.614Z,4.63
2019-05-29T05:04:37.946Z,5.20
2019-05-29T05:07:07.205Z,4.80
2019-05-29T05:09:37.469Z,9.70
2019-05-29T05:12:06.620Z,4.90
2019-05-29T05:14:35.842Z,4.30
2019-05-29T05:17:04.836Z,4.10
2019-05-29T05:19:34.000Z,5.60
2019-05-29T05:22:03.499Z,4.27
2019-05-29T05:24:32.597Z,4.50
2019-05-29T05:27:01.643Z,6.40
2019-05-29T05:29:30.787Z,4.67
2019-05-29T05:32:00.308Z,5.80
2019-05-29T05:34:30.491Z,5.37
2019-05-29T05:36:59.692Z,3.70
2019-05-29T05:39:30.712Z,4.00
2019-05-29T05:41:59.898Z,4.53
2019-05-29T05:44:29.132Z,4.03
2019-05-29T05:46:58.516Z,5.13
2019-05-29T05:49:28.951Z,4.27
2019-05-29T05:51:58.098Z,5.17
2019-05-29T05:54:27.322Z,4.30
2019-05-29T05:56:56.377Z,3.80
2019-05-29T05:59:25.514Z,4.43
2019-05-29T06:01:54.576Z,4.03
2019-05-29T06:04:23.671Z,4.23
2019-05-29T06:06:52.719Z,3.80
2019-05-29T06:09:21.877Z,4.17
2019-05-29T06:11:51.027Z,5.03
2019-05-29T06:14:20.192Z,4.27
2019-05-29T06:16:49.288Z,5.20
2019-05-29T06:19:18.239Z,9.15
2019-05-29T06:21:46.857Z,3.70
2019-05-29T06:24:15.798Z,4.45
2019-05-29T06:26:44.756Z,5.28
2019-05-29T06:29:13.945Z,4.10
2019-05-29T06:31:43.521Z,4.30
2019-05-29T06:34:12.972Z,4.17
2019-05-29T06:36:43.776Z,4.33
2019-05-29T06:39:14.227Z,3.87
2019-05-29T06:41:44.368Z,4.47
2019-05-29T06:44:13.988Z,4.93
2019-05-29T06:46:45.325Z,4.00
2019-05-29T06:49:14.106Z,3.83
2019-05-29T06:51:43.504Z,4.20
2019-05-29T06:54:12.884Z,3.40
2019-05-29T06:56:42.039Z,3.77
2019-05-29T06:59:12.534Z,3.50
2019-05-29T07:01:41.841Z,4.30
2019-05-29T07:04:12.440Z,4.83
2019-05-29T07:06:42.756Z,4.30
2019-05-29T07:09:11.735Z,3.57
2019-05-29T07:11:41.422Z,4.37
2019-05-29T07:14:10.511Z,3.47
2019-05-29T07:16:51.595Z,3.50
2019-05-29T07:19:26.552Z,4.63
2019-05-29T07:21:42.782Z,5.00
2019-05-29T07:24:12.296Z,4.60
2019-05-29T07:26:43.531Z,3.93
2019-05-29T07:29:13.465Z,3.87
2019-05-29T07:31:43.656Z,3.80
2019-05-29T07:34:12.965Z,4.23
2019-05-29T07:36:44.015Z,4.10
2019-05-29T07:39:13.436Z,4.13
2019-05-29T07:41:43.618Z,4.40
2019-05-29T07:44:12.999Z,3.53
2019-05-29T07:46:42.475Z,3.67
2019-05-29T07:49:12.208Z,4.20
2019-05-29T07:51:43.387Z,4.37
2019-05-29T07:54:12.245Z,5.93
2019-05-29T07:56:42.478Z,3.87
2019-05-29T07:59:11.860Z,4.10
2019-05-29T08:01:41.119Z,3.97
2019-05-29T08:04:10.403Z,5.73
2019-05-29T08:06:46.227Z,4.60
2019-05-29T08:09:11.042Z,5.17
2019-05-29T08:11:39.882Z,3.90
2019-05-29T08:14:09.340Z,3.10
2019-05-29T08:16:39.771Z,4.20
2019-05-29T08:19:09.429Z,3.37
2019-05-29T08:21:40.821Z,6.57
2019-05-29T08:24:09.794Z,4.10
2019-05-29T08:26:40.862Z,3.97
2019-05-29T08:29:10.667Z,4.43
2019-05-29T08:31:40.660Z,4.10
2019-05-29T08:34:10.017Z,4.43
2019-05-29T08:36:39.219Z,3.70
2019-05-29T08:39:08.836Z,4.20
2019-05-29T08:41:38.045Z,3.73
2019-05-29T08:44:10.535Z,3.77
2019-05-29T08:46:39.897Z,3.87
2019-05-29T08:49:09.064Z,4.07
2019-05-29T08:51:38.124Z,3.97
2019-05-29T08:54:22.968Z,3.70
2019-05-29T08:56:38.385Z,3.23
2019-05-29T08:59:07.445Z,3.57
2019-05-29T09:01:36.964Z,3.43
2019-05-29T09:04:06.533Z,2.87
2019-05-29T09:06:35.727Z,3.40
2019-05-29T09:09:06.539Z,4.17
2019-05-29T09:11:35.239Z,3.67
2019-05-29T09:14:05.184Z,3.65
2019-05-29T09:16:34.185Z,3.53
2019-05-29T09:19:03.478Z,3.13
2019-05-29T09:21:32.581Z,3.70
2019-05-29T09:24:01.602Z,3.77
2019-05-29T09:26:30.970Z,5.40
2019-05-29T09:29:00.753Z,3.87
2019-05-29T09:31:29.751Z,3.60
2019-05-29T09:33:59.064Z,3.30
2019-05-29T09:36:28.570Z,3.70
2019-05-29T09:38:57.853Z,4.00
2019-05-29T09:41:27.108Z,4.60
2019-05-29T09:44:00.189Z,3.80
2019-05-29T09:46:29.784Z,3.73
2019-05-29T09:49:01.493Z,3.30
2019-05-29T09:51:29.773Z,3.67
2019-05-29T09:54:01.013Z,3.70
2019-05-29T09:56:30.488Z,4.73
2019-05-29T09:59:01.766Z,3.70
2019-05-29T10:01:31.133Z,3.60
2019-05-29T10:04:03.364Z,3.70
2019-05-29T10:06:31.242Z,4.10
2019-05-29T10:09:07.674Z,3.22
2019-05-29T10:11:36.651Z,4.08
2019-05-29T10:14:05.959Z,4.80
2019-05-29T10:16:37.955Z,4.15
2019-05-29T10:19:07.108Z,3.75
2019-05-29T10:21:40.775Z,4.42
2019-05-29T10:24:06.865Z,4.65
2019-05-29T10:26:38.353Z,4.03
2019-05-29T10:29:09.505Z,4.77
2019-05-29T10:31:38.678Z,4.23
2019-05-29T10:34:07.679Z,3.58
2019-05-29T10:36:36.620Z,4.55
2019-05-29T10:39:12.562Z,3.98
2019-05-29T10:41:40.053Z,4.40
2019-05-29T10:44:12.588Z,3.58
2019-05-29T10:46:39.698Z,4.10
2019-05-29T10:49:08.678Z,4.65
2019-05-29T10:51:37.567Z,4.40
2019-05-29T10:54:06.627Z,4.78
2019-05-29T10:56:38.689Z,4.00
2019-05-29T10:59:07.993Z,4.30
2019-05-29T11:01:38.569Z,4.23
2019-05-29T11:04:08.024Z,3.93
2019-05-29T11:06:40.564Z,5.20
2019-05-29T11:09:08.526Z,4.70
2019-05-29T11:11:38.231Z,4.03
2019-05-29T11:14:07.654Z,4.50
2019-05-29T11:16:39.918Z,3.90
2019-05-29T11:19:07.874Z,5.90
2019-05-29T11:21:37.091Z,5.47
2019-05-29T11:24:06.801Z,5.93
2019-05-29T11:26:35.719Z,7.93
2019-05-29T11:29:04.753Z,3.87
2019-05-29T11:31:33.622Z,4.65
2019-05-29T11:34:02.280Z,3.92
2019-05-29T11:36:31.663Z,4.58
2019-05-29T11:39:05.453Z,4.53
2019-05-29T11:41:31.458Z,4.65
2019-05-29T11:44:00.336Z,4.67
2019-05-29T11:46:29.169Z,5.20
2019-05-29T11:48:59.372Z,4.20
2019-05-29T11:51:29.121Z,4.37
2019-05-29T11:53:57.915Z,3.70
2019-05-29T11:56:26.919Z,3.98
2019-05-29T11:58:56.978Z,3.25
2019-05-29T12:01:26.194Z,3.67
2019-05-29T12:04:18.461Z,4.50
2019-05-29T12:06:26.024Z,5.90
2019-05-29T12:08:55.791Z,4.83
2019-05-29T12:11:24.728Z,5.05
2019-05-29T12:13:54.288Z,7.00
2019-05-29T12:16:25.276Z,5.75
2019-05-29T12:18:54.073Z,4.40
2019-05-29T12:21:23.165Z,6.58
2019-05-29T12:23:52.651Z,4.30
2019-05-29T12:26:23.372Z,4.25
2019-05-29T12:28:53.914Z,4.03
2019-05-29T12:31:23.292Z,4.87
2019-05-29T12:33:52.923Z,4.33
2019-05-29T12:36:21.911Z,4.03
2019-05-29T12:38:50.740Z,4.30
2019-05-29T12:41:19.829Z,4.20
2019-05-29T12:43:48.849Z,3.70
2019-05-29T12:46:17.485Z,4.97
2019-05-29T12:48:46.331Z,4.83
2019-05-29T12:51:15.242Z,4.78
2019-05-29T12:53:44.422Z,5.43
2019-05-29T12:56:13.212Z,5.53
2019-05-29T12:58:42.058Z,4.42
2019-05-29T13:01:11.039Z,4.78
2019-05-29T13:03:39.920Z,3.95
2019-05-29T13:06:11.716Z,4.42
2019-05-29T13:08:41.770Z,4.17
2019-05-29T13:11:10.473Z,4.65
2019-05-29T13:13:39.461Z,4.78
2019-05-29T13:16:10.088Z,4.65
2019-05-29T13:18:39.163Z,5.58
2019-05-29T13:21:11.420Z,4.47
2019-05-29T13:23:45.241Z,4.17
2019-05-29T13:26:13.472Z,4.83
2019-05-29T13:28:42.274Z,5.20
2019-05-29T13:31:11.672Z,5.55
2019-05-29T13:33:40.553Z,16.60
2019-05-29T13:36:09.394Z,7.67
2019-05-29T13:38:38.416Z,5.03
2019-05-29T13:41:07.563Z,4.60
2019-05-29T13:43:36.684Z,4.60
2019-05-29T13:46:05.591Z,4.05
2019-05-29T13:48:34.400Z,3.55
2019-05-29T13:51:03.706Z,5.42
2019-05-29T13:53:32.765Z,3.85
2019-05-29T13:56:01.880Z,4.25
2019-05-29T13:58:31.383Z,4.53
2019-05-29T14:01:04.177Z,4.15
2019-05-29T14:03:32.427Z,4.00
2019-05-29T14:06:03.152Z,5.08
2019-05-29T14:08:32.097Z,6.42
2019-05-29T14:11:01.242Z,4.35
2019-05-29T14:13:29.968Z,4.03
2019-05-29T14:16:00.444Z,3.80
2019-05-29T14:18:29.891Z,5.12
2019-05-29T14:20:58.819Z,3.52
2019-05-29T14:23:27.662Z,5.08
2019-05-29T14:25:56.559Z,3.75
2019-05-29T14:28:25.453Z,3.67
2019-05-29T14:30:54.587Z,3.33
2019-05-29T14:33:23.356Z,3.47
2019-05-29T14:35:52.375Z,3.92
2019-05-29T14:38:21.388Z,3.95
2019-05-29T14:40:50.194Z,3.10
2019-05-29T14:43:19.210Z,3.10
2019-05-29T14:45:48.110Z,3.47
2019-05-29T14:48:16.972Z,3.20
2019-05-29T14:50:45.835Z,3.20
2019-05-29T14:53:14.783Z,3.00
2019-05-29T14:55:44.119Z,3.83
2019-05-29T14:58:14.075Z,2.85
2019-05-29T15:00:43.470Z,3.25
2019-05-29T15:03:13.547Z,3.27
2019-05-29T15:05:42.845Z,4.00
2019-05-29T15:08:12.042Z,3.15
2019-05-29T15:10:40.865Z,3.47
2019-05-29T15:13:11.050Z,3.33
2019-05-29T15:15:40.620Z,3.65
2019-05-29T15:18:13.696Z,3.40
2019-05-29T15:20:40.696Z,5.07
2019-05-29T15:23:11.409Z,3.45
2019-05-29T15:25:40.663Z,4.58
2019-05-29T15:28:13.592Z,3.33
2019-05-29T15:30:40.525Z,2.70
2019-05-29T15:33:10.879Z,3.45
2019-05-29T15:35:40.527Z,3.77
2019-05-29T15:38:10.657Z,2.75
2019-05-29T15:40:40.158Z,4.07
2019-05-29T15:43:12.892Z,3.85
2019-05-29T15:45:43.424Z,3.53
2019-05-29T15:48:13.111Z,3.27
2019-05-29T15:50:41.930Z,3.55
2019-05-29T15:53:11.095Z,5.40
2019-05-29T15:55:40.679Z,4.45
2019-05-29T15:58:09.587Z,5.15
2019-05-29T16:00:44.835Z,3.55
2019-05-29T16:06:23.554Z,3.33
2019-05-29T16:08:52.315Z,3.10
2019-05-29T16:11:24.982Z,3.77
2019-05-29T16:13:51.292Z,3.65
2019-05-29T16:16:20.353Z,3.10
2019-05-29T16:18:49.251Z,4.47
2019-05-29T16:21:18.825Z,3.98
2019-05-29T16:23:48.681Z,2.98
2019-05-29T16:26:18.565Z,3.72
2019-05-29T16:28:48.358Z,3.12
2019-05-29T16:31:17.230Z,2.77
2019-05-29T16:33:45.983Z,4.35
2019-05-29T16:36:16.506Z,3.42
2019-05-29T16:38:45.681Z,3.95
2019-05-29T16:41:15.727Z,3.98
2019-05-29T16:43:44.911Z,3.42
2019-05-29T16:46:17.123Z,4.03
2019-05-29T16:48:44.790Z,3.60
2019-05-29T16:51:14.585Z,3.40
2019-05-29T16:53:45.056Z,3.97
2019-05-29T16:56:14.847Z,4.10
2019-05-29T16:58:44.110Z,4.33
2019-05-29T17:01:17.684Z,3.10
2019-05-29T17:03:49.473Z,3.87
2019-05-29T17:06:18.485Z,4.80
2019-05-29T17:08:47.698Z,3.00
2019-05-29T17:11:20.431Z,3.50
2019-05-29T17:13:51.193Z,3.90
2019-05-29T17:16:20.922Z,3.80
2019-05-29T17:18:52.915Z,4.10
2019-05-29T17:21:22.806Z,3.90
2019-05-29T17:23:52.308Z,3.80
2019-05-29T17:26:21.305Z,3.70
2019-05-29T17:28:53.626Z,3.47
2019-05-29T17:31:28.163Z,3.93
2019-05-29T17:34:00.100Z,5.37
2019-05-29T17:36:29.386Z,3.50
2019-05-29T17:38:58.537Z,3.80
2019-05-29T17:41:29.180Z,3.77
2019-05-29T17:44:01.065Z,3.90
2019-05-29T17:46:32.750Z,3.80
2019-05-29T17:49:01.716Z,3.77
2019-05-29T17:51:31.771Z,3.70
2019-05-29T17:54:01.040Z,3.50
2019-05-29T17:56:36.637Z,4.17
2019-05-29T17:59:01.501Z,4.00
2019-05-29T18:01:31.080Z,3.77
2019-05-29T18:04:00.334Z,3.73
2019-05-29T18:06:29.602Z,5.03
2019-05-29T18:08:58.688Z,4.50
2019-05-29T18:11:27.791Z,4.63
2019-05-29T18:14:01.818Z,5.37
2019-05-29T18:16:30.230Z,3.90
2019-05-29T18:18:59.530Z,4.13
2019-05-29T18:21:29.358Z,4.00
2019-05-29T18:23:58.298Z,4.27
2019-05-29T18:26:42.609Z,4.20
2019-05-29T18:28:57.831Z,5.23
2019-05-29T18:31:26.722Z,4.77
2019-05-29T18:33:55.731Z,4.57
2019-05-29T18:36:25.432Z,4.67
2019-05-29T18:38:54.279Z,5.03
2019-05-29T18:41:24.301Z,4.27
2019-05-29T18:43:53.892Z,5.03
2019-05-29T18:46:23.241Z,4.50
2019-05-29T18:48:52.326Z,5.40
2019-05-29T18:51:22.359Z,5.67
2019-05-29T18:53:51.609Z,5.03
2019-05-29T18:56:24.107Z,7.07
2019-05-29T18:58:55.647Z,5.45
2019-05-29T19:01:25.483Z,5.13
2019-05-29T19:03:54.160Z,4.67
2019-05-29T19:06:23.504Z,5.37
2019-05-29T19:08:52.223Z,5.03
2019-05-29T19:11:21.757Z,5.05
2019-05-29T19:13:50.659Z,5.58
2019-05-29T19:16:19.419Z,5.15
2019-05-29T19:18:48.176Z,6.25
2019-05-29T19:21:17.208Z,5.27
2019-05-29T19:23:46.025Z,6.03
2019-05-29T19:26:14.929Z,5.63
2019-05-29T19:28:43.837Z,5.40
2019-05-29T19:31:12.880Z,5.63
2019-05-29T19:33:43.651Z,5.53
2019-05-29T19:36:12.735Z,5.57
2019-05-29T19:38:41.857Z,5.17
2019-05-29T19:41:11.693Z,4.63
2019-05-29T19:43:40.771Z,5.20
2019-05-29T19:46:09.918Z,5.20
2019-05-29T19:48:39.328Z,7.13
2019-05-29T19:51:08.437Z,5.87
2019-05-29T19:53:37.478Z,5.53
2019-05-29T19:56:07.713Z,5.17
2019-05-29T19:58:36.679Z,5.00
2019-05-29T20:01:30.519Z,5.92
2019-05-29T20:03:52.124Z,5.40
2019-05-29T20:06:21.300Z,6.20
2019-05-29T20:08:51.469Z,5.07
2019-05-29T20:11:20.531Z,5.27
2019-05-29T20:13:49.376Z,5.47
2019-05-29T20:16:18.197Z,4.80
2019-05-29T20:18:49.643Z,5.33
2019-05-29T20:21:18.640Z,5.25
2019-05-29T20:23:47.941Z,5.27
2019-05-29T20:26:16.683Z,4.83
2019-05-29T20:28:45.693Z,5.15
2019-05-29T20:31:14.648Z,5.30
2019-05-29T20:33:43.490Z,5.78
2019-05-29T20:36:17.724Z,4.92
2019-05-29T20:38:46.791Z,6.12
2019-05-29T20:41:15.647Z,6.15
2019-05-29T20:43:45.506Z,5.40
2019-05-29T20:46:14.290Z,6.28
2019-05-29T20:48:43.256Z,6.30
2019-05-29T20:51:15.259Z,6.62
2019-05-29T20:53:47.990Z,5.30
2019-05-29T20:56:17.975Z,5.77
2019-05-29T20:58:47.147Z,5.70
2019-05-29T21:01:16.415Z,5.20
2019-05-29T21:03:46.850Z,5.53
2019-05-29T21:06:16.091Z,5.60
2019-05-29T21:08:45.705Z,5.53
2019-05-29T21:11:22.191Z,6.20
2019-05-29T21:13:52.774Z,5.10
2019-05-29T21:16:22.105Z,5.43
2019-05-29T21:18:51.135Z,5.73
2019-05-29T21:21:20.043Z,6.40
2019-05-29T21:23:49.015Z,8.53
2019-05-29T21:26:18.350Z,7.33
2019-05-29T21:28:50.657Z,6.80
2019-05-29T21:31:18.397Z,6.40
2019-05-29T21:33:49.324Z,5.57
2019-05-29T21:36:18.542Z,6.63
2019-05-29T21:38:47.587Z,6.40
2019-05-29T21:41:16.843Z,5.93
2019-05-29T21:43:46.932Z,6.40
2019-05-29T21:46:16.259Z,6.93
2019-05-29T21:48:45.485Z,7.97
2019-05-29T21:51:14.614Z,7.87
2019-05-29T21:53:43.767Z,6.50
2019-05-29T21:56:12.998Z,5.97
2019-05-29T21:58:58.978Z,5.90
2019-05-29T22:01:12.761Z,5.73
2019-05-29T22:03:42.377Z,6.20
2019-05-29T22:06:11.647Z,6.40
2019-05-29T22:08:40.869Z,8.77
2019-05-29T22:11:09.922Z,5.73
2019-05-29T22:13:39.176Z,9.67
2019-05-29T22:16:08.388Z,8.17
2019-05-29T22:18:37.476Z,8.10
2019-05-29T22:21:06.853Z,7.53
2019-05-29T22:23:35.879Z,7.23
2019-05-29T22:26:05.182Z,7.73
2019-05-29T22:28:34.205Z,6.50
2019-05-29T22:31:03.230Z,7.10
2019-05-29T22:33:32.371Z,7.03
2019-05-29T22:36:01.790Z,6.73
2019-05-29T22:38:31.119Z,5.87
2019-05-29T22:41:00.166Z,7.90
2019-05-29T22:43:29.157Z,6.27
2019-05-29T22:45:58.381Z,5.90
2019-05-29T22:48:27.369Z,7.07
2019-05-29T22:50:57.772Z,6.03
2019-05-29T22:53:27.074Z,6.47
2019-05-29T22:55:56.189Z,5.87
2019-05-29T22:58:25.340Z,6.03
2019-05-29T23:00:55.957Z,5.77
2019-05-29T23:03:25.308Z,6.10
2019-05-29T23:05:54.438Z,6.40
2019-05-29T23:08:24.703Z,6.77
2019-05-29T23:10:54.156Z,6.40
2019-05-29T23:13:23.442Z,6.03
2019-05-29T23:15:52.550Z,5.70
2019-05-29T23:18:21.839Z,5.83
2019-05-29T23:20:50.788Z,7.10
2019-05-29T23:23:19.960Z,6.93
2019-05-29T23:25:48.956Z,6.47
2019-05-29T23:28:18.021Z,6.33
2019-05-29T23:30:47.202Z,6.23
2019-05-29T23:33:16.220Z,6.30
2019-05-29T23:35:45.519Z,6.17
2019-05-29T23:38:14.823Z,6.80
2019-05-29T23:40:43.899Z,6.10
2019-05-29T23:43:13.007Z,6.50
2019-05-29T23:45:42.053Z,7.70
2019-05-29T23:48:11.050Z,6.90
2019-05-29T23:50:40.659Z,7.47
2019-05-29T23:53:09.743Z,7.40
2019-05-29T23:55:38.719Z,9.37
2019-05-29T23:58:08.401Z,7.00
